Terminal Aerodrome Forecast
Issued by NWS

Home | Current Version | Previous Version | Text Only | Print | Product List | Glossary On
Versions: 1 2 3 4 5 6 7 8 9 10 11 12 13 14 15 16 17 18 19 20 21 22 23 24 25 26 27 28
000
FTUS45 KGGW 202300
TAFOLF
TAF
KOLF 202321Z 2100/2124 VRB03KT P6SM BKN200
     FM210600 VRB03KT 3SM BR VCFG SCT001 BKN150 WS010/28032KT
     FM211700 27011KT P6SM SCT200=

USA.gov is the U.S. government's official web portal to all federal, state and local government web resources and services.